Observation data for Ralls on 09/12/2017      Previous  Date  Next       Current Mesonet Observations  Soil Data  Daily Summary Page  Observations in Plain Language
KRLS 120500Z 12006KT 17/09 A3014 RMK A01 T01680088  RH  060%=      5-min Rain = 0
KRLS 120505Z 13006KT 17/09 A3014 RMK A01 T01660088  RH  061%=      5-min Rain = 0
KRLS 120510Z 13006KT 17/09 A3014 RMK A01 T01680090  RH  061%=      5-min Rain = 0
KRLS 120515Z 13006KT 17/09 A3014 RMK A01 T01680090  RH  061%=      5-min Rain = 0
KRLS 120520Z 13006KT 17/09 A3014 RMK A01 T01670091  RH  062%=      5-min Rain = 0
KRLS 120525Z 13006KT 17/09 A3014 RMK A01 T01670091  RH  062%=      5-min Rain = 0
KRLS 120530Z 13007KT 17/09 A3014 RMK A01 T01670090  RH  061%=      5-min Rain = 0
KRLS 120535Z 14007KT 17/09 A3014 RMK A01 T01670089  RH  061%=      5-min Rain = 0
KRLS 120540Z 14007KT 17/09 A3014 RMK A01 T01670090  RH  061%=      5-min Rain = 0
KRLS 120545Z 14007KT 17/09 A3013 RMK A01 T01680091  RH  062%=      5-min Rain = 0
KRLS 120550Z 14006KT 17/09 A3013 RMK A01 T01670092  RH  062%=      5-min Rain = 0
KRLS 120555Z 14006KT 17/09 A3013 RMK A01 T01650093  RH  063%=      5-min Rain = 0
KRLS 120600Z 14007KT 16/09 A3013 RMK A01 T01640094  RH  064%=      5-min Rain = 0
KRLS 120605Z 13007KT 17/09 A3013 RMK A01 T01650093  RH  064%=      5-min Rain = 0
KRLS 120610Z 13007KT 17/09 A3013 RMK A01 T01650092  RH  063%=      5-min Rain = 0
KRLS 120615Z 13006KT 16/09 A3013 RMK A01 T01630092  RH  064%=      5-min Rain = 0
KRLS 120620Z 14007KT 16/09 A3013 RMK A01 T01610092  RH  064%=      5-min Rain = 0
KRLS 120625Z 14007KT 16/09 A3012 RMK A01 T01610092  RH  065%=      5-min Rain = 0
KRLS 120630Z 13006KT 16/09 A3012 RMK A01 T01620092  RH  064%=      5-min Rain = 0
KRLS 120635Z 13006KT 16/09 A3012 RMK A01 T01610092  RH  064%=      5-min Rain = 0
KRLS 120640Z 14006KT 16/09 A3012 RMK A01 T01590092  RH  065%=      5-min Rain = 0
KRLS 120645Z 14006KT 16/09 A3012 RMK A01 T01580092  RH  066%=      5-min Rain = 0
KRLS 120650Z 14006KT 16/09 A3012 RMK A01 T01570092  RH  066%=      5-min Rain = 0
KRLS 120655Z 15006KT 16/09 A3012 RMK A01 T01570092  RH  066%=      5-min Rain = 0
KRLS 120700Z 15006KT 16/09 A3012 RMK A01 T01590092  RH  065%=      5-min Rain = 0
KRLS 120705Z 15006KT 16/09 A3012 RMK A01 T01600091  RH  065%=      5-min Rain = 0
KRLS 120710Z 15006KT 16/09 A3012 RMK A01 T01600091  RH  065%=      5-min Rain = 0
KRLS 120715Z 15005KT 16/09 A3012 RMK A01 T01590091  RH  065%=      5-min Rain = 0
KRLS 120720Z 15005KT 16/09 A3012 RMK A01 T01570091  RH  066%=      5-min Rain = 0
KRLS 120725Z 16005KT 15/09 A3011 RMK A01 T01530090  RH  067%=      5-min Rain = 0
KRLS 120730Z 17005KT 15/09 A3011 RMK A01 T01470088  RH  069%=      5-min Rain = 0
KRLS 120735Z 17004KT 14/09 A3011 RMK A01 T01440088  RH  070%=      5-min Rain = 0
KRLS 120740Z 17004KT 15/09 A3011 RMK A01 T01450091  RH  071%=      5-min Rain = 0
KRLS 120745Z 17004KT 15/09 A3011 RMK A01 T01480091  RH  070%=      5-min Rain = 0
KRLS 120750Z 17005KT 15/09 A3011 RMK A01 T01480092  RH  070%=      5-min Rain = 0
KRLS 120755Z 17005KT 15/09 A3011 RMK A01 T01480092  RH  070%=      5-min Rain = 0
KRLS 120800Z 17005KT 15/09 A3011 RMK A01 T01500092  RH  069%=      5-min Rain = 0
KRLS 120805Z 18004KT 15/09 A3011 RMK A01 T01530091  RH  068%=      5-min Rain = 0
KRLS 120810Z 19003KT 15/09 A3011 RMK A01 T01500090  RH  068%=      5-min Rain = 0
KRLS 120815Z 19003KT 15/09 A3011 RMK A01 T01460089  RH  070%=      5-min Rain = 0
KRLS 120820Z 19003KT 15/09 A301 RMK A01 T01450090  RH  071%=      5-min Rain = 0
KRLS 120825Z 19003KT 15/09 A301 RMK A01 T01470091  RH  070%=      5-min Rain = 0
KRLS 120830Z 18003KT 15/09 A301 RMK A01 T01490091  RH  069%=      5-min Rain = 0
KRLS 120835Z 18003KT 15/09 A301 RMK A01 T01500091  RH  069%=      5-min Rain = 0
KRLS 120840Z 18003KT 15/09 A301 RMK A01 T01530090  RH  067%=      5-min Rain = 0
KRLS 120845Z 19002KT 16/09 A301 RMK A01 T01570090  RH  066%=      5-min Rain = 0
KRLS 120850Z 19003KT 16/09 A301 RMK A01 T01580090  RH  065%=      5-min Rain = 0
KRLS 120855Z 18003KT 16/09 A301 RMK A01 T01560089  RH  065%=      5-min Rain = 0
KRLS 120900Z 17004KT 16/09 A301 RMK A01 T01550089  RH  066%=      5-min Rain = 0
KRLS 120905Z 17004KT 16/09 A3009 RMK A01 T01550088  RH  065%=      5-min Rain = 0
KRLS 120910Z 17004KT 16/09 A3009 RMK A01 T01550089  RH  066%=      5-min Rain = 0
KRLS 120915Z 17003KT 15/09 A3009 RMK A01 T01540088  RH  066%=      5-min Rain = 0
KRLS 120920Z 19003KT 15/09 A3009 RMK A01 T01530089  RH  066%=      5-min Rain = 0
KRLS 120925Z 19003KT 15/09 A3009 RMK A01 T01520089  RH  067%=      5-min Rain = 0
KRLS 120930Z 17003KT 15/09 A3009 RMK A01 T01540088  RH  066%=      5-min Rain = 0
KRLS 120935Z 17003KT 16/09 A3009 RMK A01 T01560088  RH  065%=      5-min Rain = 0
KRLS 120940Z 17003KT 16/09 A3009 RMK A01 T01610088  RH  063%=      5-min Rain = 0
KRLS 120945Z 17003KT 16/09 A3009 RMK A01 T01620088  RH  062%=      5-min Rain = 0
KRLS 120950Z 18002KT 16/09 A3009 RMK A01 T01600087  RH  063%=      5-min Rain = 0
KRLS 120955Z 19002KT 16/09 A3008 RMK A01 T01550087  RH  065%=      5-min Rain = 0
KRLS 121000Z 20002KT 15/09 A3008 RMK A01 T01520087  RH  066%=      5-min Rain = 0
KRLS 121005Z 19002KT 15/09 A3008 RMK A01 T01500088  RH  068%=      5-min Rain = 0
KRLS 121010Z 18003KT 15/09 A3009 RMK A01 T01510090  RH  068%=      5-min Rain = 0
KRLS 121015Z 18002KT 15/09 A3009 RMK A01 T01520089  RH  067%=      5-min Rain = 0
KRLS 121020Z 17001KT 15/09 A3009 RMK A01 T01540087  RH  065%=      5-min Rain = 0
KRLS 121025Z 14001KT 16/09 A3009 RMK A01 T01560086  RH  064%=      5-min Rain = 0
KRLS 121030Z 16001KT 15/09 A3009 RMK A01 T01530087  RH  065%=      5-min Rain = 0
KRLS 121035Z 17001KT 15/09 A3009 RMK A01 T01530086  RH  065%=      5-min Rain = 0
KRLS 121040Z 17002KT 15/09 A3009 RMK A01 T01490087  RH  067%=      5-min Rain = 0
KRLS 121045Z 17002KT 15/09 A3009 RMK A01 T01480087  RH  068%=      5-min Rain = 0
KRLS 121050Z 17001KT 15/09 A3009 RMK A01 T01510087  RH  067%=      5-min Rain = 0
KRLS 121055Z 17001KT 16/09 A3009 RMK A01 T01550087  RH  065%=      5-min Rain = 0
KRLS 121100Z 17001KT 16/09 A3009 RMK A01 T01560087  RH  065%=      5-min Rain = 0
KRLS 121105Z 18001KT 15/09 A3009 RMK A01 T01510089  RH  067%=      5-min Rain = 0
KRLS 121110Z 18001KT 15/09 A3009 RMK A01 T01500087  RH  067%=      5-min Rain = 0
KRLS 121115Z 27000KT 15/09 A3009 RMK A01 T01460087  RH  069%=      5-min Rain = 0
KRLS 121120Z 22001KT 14/09 A3009 RMK A01 T01440089  RH  071%=      5-min Rain = 0
KRLS 121125Z 20001KT 15/09 A3009 RMK A01 T01460089  RH  069%=      5-min Rain = 0
KRLS 121130Z 19002KT 15/09 A3009 RMK A01 T01470088  RH  069%=      5-min Rain = 0
KRLS 121135Z 19001KT 15/09 A3009 RMK A01 T01470088  RH  069%=      5-min Rain = 0
KRLS 121140Z 18002KT 15/09 A3009 RMK A01 T01460087  RH  069%=      5-min Rain = 0
KRLS 121145Z 18001KT 15/09 A3009 RMK A01 T01490087  RH  068%=      5-min Rain = 0
KRLS 121150Z 18001KT 15/09 A3009 RMK A01 T01460085  RH  068%=      5-min Rain = 0
KRLS 121155Z 00000KT 15/09 A3009 RMK A01 T01450086  RH  069%=      5-min Rain = 0
KRLS 121200Z 18000KT 15/08 A3009 RMK A01 T01450084  RH  068%=      5-min Rain = 0
KRLS 121205Z 22000KT 14/09 A301 RMK A01 T01420085  RH  069%=      5-min Rain = 0
KRLS 121210Z 30001KT 14/09 A301 RMK A01 T01400089  RH  073%=      5-min Rain = 0
KRLS 121215Z 27001KT 13/09 A301 RMK A01 T01340085  RH  073%=      5-min Rain = 0
KRLS 121220Z 28001KT 13/08 A301 RMK A01 T01250084  RH  077%=      5-min Rain = 0
KRLS 121225Z 30002KT 13/09 A3009 RMK A01 T01270087  RH  078%=      5-min Rain = 0
KRLS 121230Z 31002KT 12/08 A3009 RMK A01 T01220082  RH  078%=      5-min Rain = 0
KRLS 121235Z 31002KT 12/09 A3009 RMK A01 T01240090  RH  081%=      5-min Rain = 0
KRLS 121240Z 31002KT 13/09 A3009 RMK A01 T01260093  RH  082%=      5-min Rain = 0
KRLS 121245Z 32002KT 13/09 A3009 RMK A01 T01260094  RH  082%=      5-min Rain = 0
KRLS 121250Z 32002KT 12/09 A3009 RMK A01 T01240089  RH  080%=      5-min Rain = 0
KRLS 121255Z 33002KT 13/10 A301 RMK A01 T01290095  RH  081%=      5-min Rain = 0
KRLS 121300Z 35001KT 14/09 A301 RMK A01 T01350092  RH  077%=      5-min Rain = 0
KRLS 121305Z 35001KT 14/09 A301 RMK A01 T01390093  RH  075%=      5-min Rain = 0
KRLS 121310Z 35002KT 14/09 A301 RMK A01 T01410094  RH  074%=      5-min Rain = 0
KRLS 121315Z 34002KT 15/10 A301 RMK A01 T01460099  RH  074%=      5-min Rain = 0
KRLS 121320Z 34002KT 15/10 A301 RMK A01 T01540103  RH  073%=      5-min Rain = 0
KRLS 121325Z 34001KT 16/11 A301 RMK A01 T01640107  RH  071%=      5-min Rain = 0
KRLS 121330Z 34002KT 17/11 A301 RMK A01 T01670107  RH  069%=      5-min Rain = 0
KRLS 121335Z 34001KT 17/11 A301 RMK A01 T01690109  RH  069%=      5-min Rain = 0
KRLS 121340Z 34001KT 17/11 A301 RMK A01 T01720108  RH  067%=      5-min Rain = 0
KRLS 121345Z 34001KT 18/11 A301 RMK A01 T01770106  RH  064%=      5-min Rain = 0
KRLS 121350Z 33001KT 18/10 A301 RMK A01 T01820102  RH  061%=      5-min Rain = 0
KRLS 121355Z 32001KT 19/10 A301 RMK A01 T01870099  RH  058%=      5-min Rain = 0
KRLS 121400Z 31001KT 19/10 A301 RMK A01 T01920102  RH  057%=      5-min Rain = 0
KRLS 121405Z 33000KT 20/10 A301 RMK A01 T02000103  RH  054%=      5-min Rain = 0
KRLS 121410Z 31000KT 21/10 A301 RMK A01 T02060103  RH  053%=      5-min Rain = 0
KRLS 121415Z 18000KT 21/11 A301 RMK A01 T02110105  RH  051%=      5-min Rain = 0
KRLS 121420Z 19000KT 22/10 A301 RMK A01 T02180101  RH  048%=      5-min Rain = 0
KRLS 121425Z 20000KT 22/10 A301 RMK A01 T02190102  RH  048%=      5-min Rain = 0
KRLS 121430Z 21001KT 22/10 A301 RMK A01 T02200099  RH  047%=      5-min Rain = 0
KRLS 121435Z 22001KT 22/10 A301 RMK A01 T02200095  RH  046%=      5-min Rain = 0
KRLS 121440Z 22001KT 22/10 A301 RMK A01 T02230096  RH  045%=      5-min Rain = 0
KRLS 121445Z 22002KT 22/10 A301 RMK A01 T02230100  RH  046%=      5-min Rain = 0
KRLS 121450Z 20002KT 23/10 A301 RMK A01 T02270104  RH  046%=      5-min Rain = 0
KRLS 121455Z 20002KT 23/10 A301 RMK A01 T02320100  RH  044%=      5-min Rain = 0
KRLS 121500Z 22004KT 23/10 A301 RMK A01 T02340097  RH  043%=      5-min Rain = 0
KRLS 121505Z 21004KT 24/10 A301 RMK A01 T02360097  RH  042%=      5-min Rain = 0
KRLS 121510Z 22004KT 24/10 A301 RMK A01 T02400096  RH  041%=      5-min Rain = 0
KRLS 121515Z 22005KT 24/10 A301 RMK A01 T02420096  RH  040%=      5-min Rain = 0
KRLS 121520Z 22005KT 24/10 A301 RMK A01 T02420096  RH  040%=      5-min Rain = 0
KRLS 121525Z 21005KT 25/10 A301 RMK A01 T02450098  RH  040%=      5-min Rain = 0
KRLS 121530Z 20005KT 25/10 A3009 RMK A01 T02480097  RH  039%=      5-min Rain = 0
KRLS 121535Z 22005KT 25/10 A3009 RMK A01 T02480096  RH  039%=      5-min Rain = 0
KRLS 121540Z 20005KT 25/10 A3009 RMK A01 T02500097  RH  039%=      5-min Rain = 0
KRLS 121545Z 21006KT 25/10 A3009 RMK A01 T02490095  RH  038%=      5-min Rain = 0
KRLS 121550Z 22005KT 25/09 A3009 RMK A01 T02510094  RH  038%=      5-min Rain = 0
KRLS 121555Z 22006KT 25/10 A3009 RMK A01 T02540095  RH  037%=      5-min Rain = 0
KRLS 121600Z 21004KT 26/10 A3009 RMK A01 T02580099  RH  037%=      5-min Rain = 0
KRLS 121605Z 24005KT 26/10 A3009 RMK A01 T02620099  RH  036%=      5-min Rain = 0
KRLS 121610Z 25005KT 26/10 A3009 RMK A01 T02580097  RH  037%=      5-min Rain = 0
KRLS 121615Z 21006KT 26/10 A3009 RMK A01 T02610100  RH  037%=      5-min Rain = 0
KRLS 121620Z 23004KT 27/10 A3009 RMK A01 T02660100  RH  036%=      5-min Rain = 0
KRLS 121625Z 20004KT 27/10 A3008 RMK A01 T02680101  RH  036%=      5-min Rain = 0
KRLS 121630Z 22005KT 27/10 A3008 RMK A01 T02690101  RH  035%=      5-min Rain = 0
KRLS 121635Z 22004KT 27/10 A3008 RMK A01 T02690100  RH  035%=      5-min Rain = 0
KRLS 121640Z 24004KT 27/10 A3008 RMK A01 T02690100  RH  035%=      5-min Rain = 0
KRLS 121645Z 25003KT 28/10 A3008 RMK A01 T02770102  RH  034%=      5-min Rain = 0
KRLS 121650Z 25004KT 28/10 A3008 RMK A01 T02780101  RH  034%=      5-min Rain = 0
KRLS 121655Z 20003KT 28/10 A3007 RMK A01 T02780100  RH  033%=      5-min Rain = 0
KRLS 121700Z 26003KT 28/10 A3007 RMK A01 T02810103  RH  033%=      5-min Rain = 0
KRLS 121705Z 26004KT 28/10 A3007 RMK A01 T02840098  RH  032%=      5-min Rain = 0
KRLS 121710Z 27003KT 28/10 A3007 RMK A01 T02820098  RH  032%=      5-min Rain = 0
KRLS 121715Z 26004KT 28/10 A3006 RMK A01 T02830101  RH  033%=      5-min Rain = 0
KRLS 121720Z 26004KT 29/10 A3006 RMK A01 T02920103  RH  031%=      5-min Rain = 0
KRLS 121725Z 20003KT 29/10 A3006 RMK A01 T02900097  RH  031%=      5-min Rain = 0
KRLS 121730Z 26005KT 29/10 A3006 RMK A01 T02890098  RH  031%=      5-min Rain = 0
KRLS 121735Z 28005KT 29/10 A3006 RMK A01 T02900098  RH  031%=      5-min Rain = 0
KRLS 121740Z 30003KT 29/10 A3005 RMK A01 T02930099  RH  030%=      5-min Rain = 0
KRLS 121745Z 26004KT 30/10 A3005 RMK A01 T02950099  RH  030%=      5-min Rain = 0
KRLS 121750Z 24004KT 30/10 A3005 RMK A01 T02950098  RH  030%=      5-min Rain = 0
KRLS 121755Z 18002KT 29/10 A3005 RMK A01 T02900096  RH  030%=      5-min Rain = 0
KRLS 121800Z 25005KT 30/10 A3005 RMK A01 T02980098  RH  029%=      5-min Rain = 0
KRLS 121805Z 25003KT 30/10 A3004 RMK A01 T02970097  RH  029%=      5-min Rain = 0
KRLS 121810Z 21003KT 30/10 A3004 RMK A01 T03030099  RH  029%=      5-min Rain = 0
KRLS 121815Z 28005KT 31/10 A3004 RMK A01 T03080098  RH  028%=      5-min Rain = 0
KRLS 121820Z 31002G7KT 30/10 A3004 RMK A01 T03040095  RH  028%=      5-min Rain = 0
KRLS 121825Z 30004KT 31/10 A3003 RMK A01 T03050098  RH  028%=      5-min Rain = 0
KRLS 121830Z 26005KT 31/10 A3003 RMK A01 T03100098  RH  027%=      5-min Rain = 0
KRLS 121835Z 26003G9KT 31/10 A3003 RMK A01 T03110100  RH  028%=      5-min Rain = 0
KRLS 121840Z 25006KT 31/10 A3003 RMK A01 T03080097  RH  028%=      5-min Rain = 0
KRLS 121845Z 22003KT 31/09 A3003 RMK A01 T03070094  RH  027%=      5-min Rain = 0
KRLS 121850Z 21001KT 31/10 A3002 RMK A01 T03110095  RH  027%=      5-min Rain = 0
KRLS 121855Z 23005KT 32/10 A3002 RMK A01 T03150100  RH  027%=      5-min Rain = 0
KRLS 121900Z 23005KT 31/10 A3002 RMK A01 T03140100  RH  027%=      5-min Rain = 0
KRLS 121905Z 24005KT 32/10 A3002 RMK A01 T03200101  RH  027%=      5-min Rain = 0
KRLS 121910Z 33005KT 32/10 A3002 RMK A01 T03170097  RH  026%=      5-min Rain = 0
KRLS 121915Z 07004KT 32/09 A3001 RMK A01 T03150093  RH  026%=      5-min Rain = 0
KRLS 121920Z 03003G8KT 32/10 A3001 RMK A01 T03190095  RH  025%=      5-min Rain = 0
KRLS 121925Z 33007KT 32/10 A3001 RMK A01 T03240097  RH  025%=      5-min Rain = 0
KRLS 121930Z 35003KT 32/10 A3001 RMK A01 T03220095  RH  025%=      5-min Rain = 0
KRLS 121935Z 03006KT 32/09 A30 RMK A01 T03220093  RH  025%=      5-min Rain = 0
KRLS 121940Z 05004KT 32/09 A30 RMK A01 T03210093  RH  025%=      5-min Rain = 0
KRLS 121945Z 04003KT 33/09 A30 RMK A01 T03250094  RH  024%=      5-min Rain = 0
KRLS 121950Z 33004G9KT 33/09 A30 RMK A01 T03270092  RH  024%=      5-min Rain = 0
KRLS 121955Z 27005KT 33/09 A2999 RMK A01 T03250087  RH  023%=      5-min Rain = 0
KRLS 122000Z 30007G12KT 33/09 A2999 RMK A01 T03250087  RH  023%=      5-min Rain = 0
KRLS 122005Z 31005KT 32/09 A2999 RMK A01 T03230086  RH  023%=      5-min Rain = 0
KRLS 122010Z 30002KT 33/09 A2998 RMK A01 T03250085  RH  023%=      5-min Rain = 0
KRLS 122015Z 29004KT 32/09 A2998 RMK A01 T03240085  RH  023%=      5-min Rain = 0
KRLS 122020Z 28003KT 33/08 A2998 RMK A01 T03270083  RH  023%=      5-min Rain = 0
KRLS 122025Z 26002KT 33/08 A2997 RMK A01 T03290083  RH  022%=      5-min Rain = 0
KRLS 122030Z 33004KT 33/09 A2997 RMK A01 T03340087  RH  022%=      5-min Rain = 0
KRLS 122035Z 31006KT 33/08 A2997 RMK A01 T03340076  RH  021%=      5-min Rain = 0
KRLS 122040Z 29006KT 33/07 A2996 RMK A01 T03340071  RH  020%=      5-min Rain = 0
KRLS 122045Z 32007G12KT 33/07 A2996 RMK A01 T03330071  RH  020%=      5-min Rain = 0
KRLS 122050Z 28006KT 33/07 A2996 RMK A01 T03320073  RH  020%=      5-min Rain = 0
KRLS 122055Z 29006KT 34/08 A2996 RMK A01 T03350075  RH  020%=      5-min Rain = 0
KRLS 122100Z 36005KT 33/07 A2996 RMK A01 T03310073  RH  020%=      5-min Rain = 0
KRLS 122105Z 02004G9KT 33/07 A2995 RMK A01 T03320071  RH  020%=      5-min Rain = 0
KRLS 122110Z 06002KT 33/07 A2995 RMK A01 T03310071  RH  020%=      5-min Rain = 0
KRLS 122115Z 07002KT 34/08 A2995 RMK A01 T03380076  RH  020%=      5-min Rain = 0
KRLS 122120Z 01002KT 34/08 A2995 RMK A01 T03380077  RH  020%=      5-min Rain = 0
KRLS 122125Z 31007G12KT 34/08 A2995 RMK A01 T03370078  RH  020%=      5-min Rain = 0
KRLS 122130Z 33005G11KT 33/08 A2995 RMK A01 T03340076  RH  021%=      5-min Rain = 0
KRLS 122135Z 34005KT 34/08 A2994 RMK A01 T03350078  RH  021%=      5-min Rain = 0
KRLS 122140Z 01003KT 34/08 A2994 RMK A01 T03350077  RH  021%=      5-min Rain = 0
KRLS 122145Z 03004KT 34/08 A2994 RMK A01 T03380079  RH  021%=      5-min Rain = 0
KRLS 122150Z 10003KT 33/07 A2994 RMK A01 T03310074  RH  021%=      5-min Rain = 0
KRLS 122155Z 27002KT 33/08 A2993 RMK A01 T03340076  RH  021%=      5-min Rain = 0
KRLS 122200Z 31005KT 34/08 A2993 RMK A01 T03400080  RH  020%=      5-min Rain = 0
KRLS 122205Z 35006KT 34/08 A2993 RMK A01 T03360076  RH  020%=      5-min Rain = 0
KRLS 122210Z 07001KT 34/07 A2993 RMK A01 T03350071  RH  020%=      5-min Rain = 0
KRLS 122215Z 12002KT 34/07 A2993 RMK A01 T03350071  RH  020%=      5-min Rain = 0
KRLS 122220Z 08005KT 34/07 A2993 RMK A01 T03360072  RH  020%=      5-min Rain = 0
KRLS 122225Z 10004KT 34/07 A2993 RMK A01 T03350073  RH  020%=      5-min Rain = 0
KRLS 122230Z 05005KT 34/08 A2993 RMK A01 T03370077  RH  020%=      5-min Rain = 0
KRLS 122235Z 03006KT 34/07 A2993 RMK A01 T03350071  RH  020%=      5-min Rain = 0
KRLS 122240Z 06003KT 33/07 A2992 RMK A01 T03330066  RH  019%=      5-min Rain = 0
KRLS 122245Z 03003KT 34/07 A2992 RMK A01 T03350069  RH  020%=      5-min Rain = 0
KRLS 122250Z 35004KT 34/07 A2992 RMK A01 T03350067  RH  019%=      5-min Rain = 0
KRLS 122255Z 35001KT 34/07 A2992 RMK A01 T03350066  RH  019%=      5-min Rain = 0
KRLS 122300Z 34001KT 34/07 A2992 RMK A01 T03430066  RH  018%=      5-min Rain = 0
KRLS 122305Z 01005KT 34/07 A2992 RMK A01 T03370069  RH  019%=      5-min Rain = 0
KRLS 122310Z 02005KT 34/07 A2992 RMK A01 T03350073  RH  020%=      5-min Rain = 0
KRLS 122315Z 02006KT 33/07 A2992 RMK A01 T03330069  RH  020%=      5-min Rain = 0
KRLS 122320Z 00005KT 33/07 A2992 RMK A01 T03310069  RH  020%=      5-min Rain = 0
KRLS 122325Z 34002KT 33/07 A2992 RMK A01 T03310069  RH  020%=      5-min Rain = 0
KRLS 122330Z 03004KT 33/07 A2992 RMK A01 T03310074  RH  021%=      5-min Rain = 0
KRLS 122335Z 03003KT 33/07 A2992 RMK A01 T03290067  RH  020%=      5-min Rain = 0
KRLS 122340Z 35002KT 33/07 A2991 RMK A01 T03290071  RH  020%=      5-min Rain = 0
KRLS 122345Z 34000KT 33/07 A2991 RMK A01 T03310067  RH  020%=      5-min Rain = 0
KRLS 122350Z 30000KT 33/08 A2991 RMK A01 T03320079  RH  021%=      5-min Rain = 0
KRLS 122355Z 00000KT 34/08 A2991 RMK A01 T03350081  RH  021%=      5-min Rain = 0
KRLS 130000Z 00000KT 33/08 A2991 RMK A01 T03290080  RH  022%=      5-min Rain = 0
KRLS 130005Z 29000KT 33/07 A2991 RMK A01 T03270073  RH  021%=      5-min Rain = 0
KRLS 130010Z 05003G9KT 32/10 A2991 RMK A01 T03190096  RH  026%=      5-min Rain = 0
KRLS 130015Z 05007KT 31/10 A2991 RMK A01 T03090095  RH  027%=      5-min Rain = 0
KRLS 130020Z 09013KT 31/10 A2991 RMK A01 T03050097  RH  028%=      5-min Rain = 0
KRLS 130025Z 08008G13KT 30/10 A2991 RMK A01 T03000100  RH  029%=      5-min Rain = 0
KRLS 130030Z 08009KT 29/10 A2991 RMK A01 T02930102  RH  031%=      5-min Rain = 0
KRLS 130035Z 09010KT 29/10 A2991 RMK A01 T02910100  RH  031%=      5-min Rain = 0
KRLS 130040Z 08008KT 29/10 A2991 RMK A01 T02880100  RH  032%=      5-min Rain = 0
KRLS 130045Z 08007KT 28/10 A2991 RMK A01 T02800103  RH  034%=      5-min Rain = 0
KRLS 130050Z 08009KT 28/10 A2991 RMK A01 T02760102  RH  034%=      5-min Rain = 0
KRLS 130055Z 08008KT 27/10 A2992 RMK A01 T02740101  RH  034%=      5-min Rain = 0
KRLS 130100Z 08009KT 27/10 A2992 RMK A01 T02720101  RH  035%=      5-min Rain = 0
KRLS 130105Z 08008KT 27/10 A2992 RMK A01 T02680101  RH  036%=      5-min Rain = 0
KRLS 130110Z 08007KT 26/10 A2992 RMK A01 T02640101  RH  037%=      5-min Rain = 0
KRLS 130115Z 08007KT 26/10 A2992 RMK A01 T02590102  RH  038%=      5-min Rain = 0
KRLS 130120Z 08007KT 26/10 A2992 RMK A01 T02550102  RH  039%=      5-min Rain = 0
KRLS 130125Z 08007KT 25/10 A2992 RMK A01 T02530102  RH  039%=      5-min Rain = 0
KRLS 130130Z 08007KT 25/10 A2993 RMK A01 T02510102  RH  040%=      5-min Rain = 0
KRLS 130135Z 09007KT 25/10 A2993 RMK A01 T02480102  RH  040%=      5-min Rain = 0
KRLS 130140Z 08007KT 25/10 A2993 RMK A01 T02450102  RH  041%=      5-min Rain = 0
KRLS 130145Z 09006KT 24/10 A2993 RMK A01 T02420102  RH  042%=      5-min Rain = 0
KRLS 130150Z 08006KT 24/10 A2994 RMK A01 T02380102  RH  043%=      5-min Rain = 0
KRLS 130155Z 09006KT 23/10 A2994 RMK A01 T02340103  RH  044%=      5-min Rain = 0
KRLS 130200Z 09006KT 23/10 A2994 RMK A01 T02310101  RH  045%=      5-min Rain = 0
KRLS 130205Z 09006KT 23/10 A2994 RMK A01 T02290101  RH  045%=      5-min Rain = 0
KRLS 130210Z 09006KT 23/10 A2994 RMK A01 T02300102  RH  045%=      5-min Rain = 0
KRLS 130215Z 08006KT 23/10 A2995 RMK A01 T02270102  RH  046%=      5-min Rain = 0
KRLS 130220Z 09005KT 22/10 A2995 RMK A01 T02240102  RH  046%=      5-min Rain = 0
KRLS 130225Z 08005KT 22/10 A2995 RMK A01 T02230100  RH  047%=      5-min Rain = 0
KRLS 130230Z 09005KT 22/10 A2995 RMK A01 T02180101  RH  048%=      5-min Rain = 0
KRLS 130235Z 09005KT 22/10 A2995 RMK A01 T02160100  RH  048%=      5-min Rain = 0
KRLS 130240Z 09006KT 21/10 A2995 RMK A01 T02130100  RH  049%=      5-min Rain = 0
KRLS 130245Z 09006KT 21/10 A2995 RMK A01 T02110100  RH  050%=      5-min Rain = 0
KRLS 130250Z 10006KT 22/10 A2996 RMK A01 T02150099  RH  048%=      5-min Rain = 0
KRLS 130255Z 09007KT 22/10 A2996 RMK A01 T02170098  RH  047%=      5-min Rain = 0
KRLS 130300Z 09007KT 22/10 A2995 RMK A01 T02170098  RH  048%=      5-min Rain = 0
KRLS 130305Z 09006KT 22/10 A2996 RMK A01 T02150097  RH  048%=      5-min Rain = 0
KRLS 130310Z 10006KT 21/10 A2996 RMK A01 T02110097  RH  049%=      5-min Rain = 0
KRLS 130315Z 10007KT 21/10 A2996 RMK A01 T02100097  RH  049%=      5-min Rain = 0
KRLS 130320Z 09005KT 21/10 A2996 RMK A01 T02080098  RH  050%=      5-min Rain = 0
KRLS 130325Z 10005KT 21/10 A2996 RMK A01 T02050098  RH  051%=      5-min Rain = 0
KRLS 130330Z 10006KT 21/10 A2996 RMK A01 T02050096  RH  050%=      5-min Rain = 0
KRLS 130335Z 10006KT 20/10 A2996 RMK A01 T02040095  RH  050%=      5-min Rain = 0
KRLS 130340Z 08005KT 20/10 A2997 RMK A01 T01980096  RH  053%=      5-min Rain = 0
KRLS 130345Z 08005KT 19/10 A2997 RMK A01 T01930095  RH  054%=      5-min Rain = 0
KRLS 130350Z 10005KT 19/10 A2997 RMK A01 T01930096  RH  054%=      5-min Rain = 0
KRLS 130355Z 10006KT 19/09 A2997 RMK A01 T01940094  RH  053%=      5-min Rain = 0
KRLS 130400Z 10007KT 20/09 A2997 RMK A01 T01960093  RH  052%=      5-min Rain = 0
KRLS 130405Z 10007KT 20/09 A2997 RMK A01 T01960093  RH  052%=      5-min Rain = 0
KRLS 130410Z 11006KT 20/09 A2997 RMK A01 T02000092  RH  051%=      5-min Rain = 0
KRLS 130415Z 11006KT 20/09 A2997 RMK A01 T02010091  RH  050%=      5-min Rain = 0
KRLS 130420Z 10006KT 20/09 A2997 RMK A01 T01980091  RH  051%=      5-min Rain = 0
KRLS 130425Z 11006KT 20/09 A2997 RMK A01 T01950092  RH  052%=      5-min Rain = 0
KRLS 130430Z 11006KT 19/09 A2997 RMK A01 T01940092  RH  052%=      5-min Rain = 0
KRLS 130435Z 11006KT 19/09 A2997 RMK A01 T01930091  RH  053%=      5-min Rain = 0
KRLS 130440Z 10007KT 19/09 A2997 RMK A01 T01880092  RH  054%=      5-min Rain = 0
KRLS 130445Z 11007KT 19/09 A2997 RMK A01 T01900092  RH  054%=      5-min Rain = 0
KRLS 130450Z 11007KT 19/09 A2997 RMK A01 T01930091  RH  052%=      5-min Rain = 0
KRLS 130455Z 11006KT 19/09 A2997 RMK A01 T01930091  RH  053%=      5-min Rain = 0

Page generated in 0.0093 seconds.